sensor_id;sensor_type;location;lat;lon;timestamp;P1;durP1;ratioP1;P2;durP2;ratioP2
41927;SDS011;27616;51.420;6.788;2023-05-21T00:01:51;10.95;;;5.53;;
41927;SDS011;27616;51.420;6.788;2023-05-21T00:04:16;9.90;;;5.38;;
41927;SDS011;27616;51.420;6.788;2023-05-21T00:06:42;11.52;;;6.28;;
41927;SDS011;27616;51.420;6.788;2023-05-21T00:09:08;11.00;;;5.82;;
41927;SDS011;27616;51.420;6.788;2023-05-21T00:11:34;11.40;;;5.22;;
41927;SDS011;27616;51.420;6.788;2023-05-21T00:14:00;10.95;;;5.72;;
41927;SDS011;27616;51.420;6.788;2023-05-21T00:16:26;11.35;;;5.28;;
41927;SDS011;27616;51.420;6.788;2023-05-21T00:18:51;10.43;;;5.63;;
41927;SDS011;27616;51.420;6.788;2023-05-21T00:21:18;8.82;;;4.78;;
41927;SDS011;27616;51.420;6.788;2023-05-21T00:23:50;10.77;;;5.03;;
41927;SDS011;27616;51.420;6.788;2023-05-21T00:26:20;9.10;;;5.13;;
41927;SDS011;27616;51.420;6.788;2023-05-21T00:28:47;10.45;;;5.50;;
41927;SDS011;27616;51.420;6.788;2023-05-21T00:31:13;10.55;;;5.03;;
41927;SDS011;27616;51.420;6.788;2023-05-21T00:33:40;9.88;;;5.30;;
41927;SDS011;27616;51.420;6.788;2023-05-21T00:36:06;9.70;;;5.00;;
41927;SDS011;27616;51.420;6.788;2023-05-21T00:38:32;9.57;;;5.00;;
41927;SDS011;27616;51.420;6.788;2023-05-21T00:41:01;7.00;;;4.30;;
41927;SDS011;27616;51.420;6.788;2023-05-21T00:43:27;9.40;;;5.00;;
41927;SDS011;27616;51.420;6.788;2023-05-21T00:45:53;10.20;;;4.75;;
41927;SDS011;27616;51.420;6.788;2023-05-21T00:48:20;8.23;;;4.38;;
41927;SDS011;27616;51.420;6.788;2023-05-21T00:50:47;8.07;;;4.30;;
41927;SDS011;27616;51.420;6.788;2023-05-21T00:53:13;8.23;;;4.57;;
41927;SDS011;27616;51.420;6.788;2023-05-21T00:55:42;8.82;;;4.40;;
41927;SDS011;27616;51.420;6.788;2023-05-21T00:58:08;6.68;;;4.35;;
41927;SDS011;27616;51.420;6.788;2023-05-21T01:00:34;9.27;;;4.68;;
41927;SDS011;27616;51.420;6.788;2023-05-21T01:03:01;7.97;;;4.28;;
41927;SDS011;27616;51.420;6.788;2023-05-21T01:05:28;9.73;;;4.18;;
41927;SDS011;27616;51.420;6.788;2023-05-21T01:07:55;7.88;;;4.15;;
41927;SDS011;27616;51.420;6.788;2023-05-21T01:10:22;8.88;;;3.92;;
41927;SDS011;27616;51.420;6.788;2023-05-21T01:12:49;7.70;;;4.20;;
41927;SDS011;27616;51.420;6.788;2023-05-21T01:15:16;9.93;;;4.68;;
41927;SDS011;27616;51.420;6.788;2023-05-21T01:17:42;6.93;;;3.67;;
41927;SDS011;27616;51.420;6.788;2023-05-21T01:20:14;6.50;;;3.85;;
41927;SDS011;27616;51.420;6.788;2023-05-21T01:22:51;8.20;;;3.80;;
41927;SDS011;27616;51.420;6.788;2023-05-21T01:25:22;7.68;;;3.70;;
41927;SDS011;27616;51.420;6.788;2023-05-21T01:27:48;8.00;;;4.28;;
41927;SDS011;27616;51.420;6.788;2023-05-21T01:30:18;6.38;;;3.60;;
41927;SDS011;27616;51.420;6.788;2023-05-21T01:35:25;7.38;;;3.42;;
41927;SDS011;27616;51.420;6.788;2023-05-21T01:38:23;7.78;;;3.95;;
41927;SDS011;27616;51.420;6.788;2023-05-21T01:41:03;6.32;;;3.10;;
41927;SDS011;27616;51.420;6.788;2023-05-21T01:43:35;6.55;;;3.60;;
41927;SDS011;27616;51.420;6.788;2023-05-21T01:46:03;7.80;;;3.53;;
41927;SDS011;27616;51.420;6.788;2023-05-21T01:48:31;5.90;;;3.78;;
41927;SDS011;27616;51.420;6.788;2023-05-21T01:50:59;6.38;;;3.50;;
41927;SDS011;27616;51.420;6.788;2023-05-21T01:53:27;6.47;;;3.60;;
41927;SDS011;27616;51.420;6.788;2023-05-21T01:55:53;6.68;;;3.40;;
41927;SDS011;27616;51.420;6.788;2023-05-21T01:58:19;7.60;;;3.42;;
41927;SDS011;27616;51.420;6.788;2023-05-21T02:00:47;7.47;;;3.58;;
41927;SDS011;27616;51.420;6.788;2023-05-21T02:03:15;5.88;;;3.47;;
41927;SDS011;27616;51.420;6.788;2023-05-21T02:05:41;7.00;;;3.53;;
41927;SDS011;27616;51.420;6.788;2023-05-21T02:08:07;5.68;;;3.38;;
41927;SDS011;27616;51.420;6.788;2023-05-21T02:10:33;5.28;;;3.30;;
41927;SDS011;27616;51.420;6.788;2023-05-21T02:13:00;9.88;;;3.88;;
41927;SDS011;27616;51.420;6.788;2023-05-21T02:15:27;5.85;;;3.28;;
41927;SDS011;27616;51.420;6.788;2023-05-21T02:17:53;6.63;;;3.63;;
41927;SDS011;27616;51.420;6.788;2023-05-21T02:20:19;6.50;;;3.22;;
41927;SDS011;27616;51.420;6.788;2023-05-21T02:22:47;6.78;;;3.95;;
41927;SDS011;27616;51.420;6.788;2023-05-21T02:25:14;5.57;;;3.22;;
41927;SDS011;27616;51.420;6.788;2023-05-21T02:27:41;6.70;;;4.03;;
41927;SDS011;27616;51.420;6.788;2023-05-21T02:30:10;6.05;;;3.47;;
41927;SDS011;27616;51.420;6.788;2023-05-21T02:32:37;6.60;;;3.90;;
41927;SDS011;27616;51.420;6.788;2023-05-21T02:37:33;5.95;;;3.15;;
41927;SDS011;27616;51.420;6.788;2023-05-21T02:40:00;6.68;;;3.83;;
41927;SDS011;27616;51.420;6.788;2023-05-21T02:42:28;6.20;;;3.72;;
41927;SDS011;27616;51.420;6.788;2023-05-21T02:44:54;6.70;;;3.58;;
41927;SDS011;27616;51.420;6.788;2023-05-21T02:47:21;7.90;;;3.78;;
41927;SDS011;27616;51.420;6.788;2023-05-21T02:49:48;9.35;;;4.50;;
41927;SDS011;27616;51.420;6.788;2023-05-21T02:52:15;5.93;;;3.28;;
41927;SDS011;27616;51.420;6.788;2023-05-21T02:54:46;7.72;;;3.83;;
41927;SDS011;27616;51.420;6.788;2023-05-21T02:57:12;7.72;;;4.10;;
41927;SDS011;27616;51.420;6.788;2023-05-21T02:59:38;5.20;;;3.35;;
41927;SDS011;27616;51.420;6.788;2023-05-21T03:02:03;7.00;;;3.67;;
41927;SDS011;27616;51.420;6.788;2023-05-21T03:04:29;7.70;;;3.92;;
41927;SDS011;27616;51.420;6.788;2023-05-21T03:06:57;6.75;;;3.53;;
41927;SDS011;27616;51.420;6.788;2023-05-21T03:09:26;6.47;;;3.78;;
41927;SDS011;27616;51.420;6.788;2023-05-21T03:11:54;8.13;;;3.60;;
41927;SDS011;27616;51.420;6.788;2023-05-21T03:14:20;5.85;;;3.60;;
41927;SDS011;27616;51.420;6.788;2023-05-21T03:16:47;7.25;;;3.58;;
41927;SDS011;27616;51.420;6.788;2023-05-21T03:19:14;6.40;;;3.70;;
41927;SDS011;27616;51.420;6.788;2023-05-21T03:21:39;6.63;;;3.80;;
41927;SDS011;27616;51.420;6.788;2023-05-21T03:24:07;6.20;;;3.67;;
41927;SDS011;27616;51.420;6.788;2023-05-21T03:26:33;6.00;;;3.63;;
41927;SDS011;27616;51.420;6.788;2023-05-21T03:28:59;6.28;;;3.40;;
41927;SDS011;27616;51.420;6.788;2023-05-21T03:31:26;7.97;;;3.88;;
41927;SDS011;27616;51.420;6.788;2023-05-21T03:34:07;7.85;;;3.67;;
41927;SDS011;27616;51.420;6.788;2023-05-21T03:36:33;6.50;;;3.85;;
41927;SDS011;27616;51.420;6.788;2023-05-21T03:39:00;6.47;;;3.63;;
41927;SDS011;27616;51.420;6.788;2023-05-21T03:41:25;5.78;;;3.80;;
41927;SDS011;27616;51.420;6.788;2023-05-21T03:44:01;7.90;;;3.85;;
41927;SDS011;27616;51.420;6.788;2023-05-21T03:46:33;7.10;;;3.83;;
41927;SDS011;27616;51.420;6.788;2023-05-21T03:49:15;5.75;;;3.60;;
41927;SDS011;27616;51.420;6.788;2023-05-21T03:51:41;6.43;;;3.35;;
41927;SDS011;27616;51.420;6.788;2023-05-21T03:54:11;7.85;;;3.90;;
41927;SDS011;27616;51.420;6.788;2023-05-21T03:56:38;5.38;;;3.47;;
41927;SDS011;27616;51.420;6.788;2023-05-21T03:59:04;9.25;;;3.40;;
41927;SDS011;27616;51.420;6.788;2023-05-21T04:01:30;6.35;;;3.60;;
41927;SDS011;27616;51.420;6.788;2023-05-21T04:03:58;5.93;;;3.28;;
41927;SDS011;27616;51.420;6.788;2023-05-21T04:06:25;6.75;;;3.42;;
41927;SDS011;27616;51.420;6.788;2023-05-21T04:08:52;10.88;;;3.67;;
41927;SDS011;27616;51.420;6.788;2023-05-21T04:11:17;6.35;;;3.67;;
41927;SDS011;27616;51.420;6.788;2023-05-21T04:13:43;7.82;;;3.78;;
41927;SDS011;27616;51.420;6.788;2023-05-21T04:16:10;8.35;;;3.50;;
41927;SDS011;27616;51.420;6.788;2023-05-21T04:18:39;7.15;;;3.92;;
41927;SDS011;27616;51.420;6.788;2023-05-21T04:23:34;7.85;;;3.80;;
41927;SDS011;27616;51.420;6.788;2023-05-21T04:26:05;6.53;;;3.70;;
41927;SDS011;27616;51.420;6.788;2023-05-21T04:28:32;7.20;;;3.60;;
41927;SDS011;27616;51.420;6.788;2023-05-21T04:30:59;6.00;;;3.63;;
41927;SDS011;27616;51.420;6.788;2023-05-21T04:33:25;7.78;;;4.00;;
41927;SDS011;27616;51.420;6.788;2023-05-21T04:35:52;7.18;;;4.10;;
41927;SDS011;27616;51.420;6.788;2023-05-21T04:38:19;5.78;;;3.55;;
41927;SDS011;27616;51.420;6.788;2023-05-21T04:40:48;6.72;;;3.60;;
41927;SDS011;27616;51.420;6.788;2023-05-21T04:43:20;7.07;;;4.10;;
41927;SDS011;27616;51.420;6.788;2023-05-21T04:45:51;6.38;;;3.63;;
41927;SDS011;27616;51.420;6.788;2023-05-21T04:48:19;8.95;;;4.90;;
41927;SDS011;27616;51.420;6.788;2023-05-21T04:50:48;9.70;;;5.05;;
41927;SDS011;27616;51.420;6.788;2023-05-21T04:53:15;9.90;;;5.03;;
41927;SDS011;27616;51.420;6.788;2023-05-21T04:55:41;7.30;;;4.18;;
41927;SDS011;27616;51.420;6.788;2023-05-21T04:58:07;7.20;;;3.97;;
41927;SDS011;27616;51.420;6.788;2023-05-21T05:00:36;7.10;;;3.85;;
41927;SDS011;27616;51.420;6.788;2023-05-21T05:03:03;8.07;;;4.00;;
41927;SDS011;27616;51.420;6.788;2023-05-21T05:05:30;8.55;;;4.00;;
41927;SDS011;27616;51.420;6.788;2023-05-21T05:07:56;7.25;;;4.20;;
41927;SDS011;27616;51.420;6.788;2023-05-21T05:10:22;7.32;;;4.22;;
41927;SDS011;27616;51.420;6.788;2023-05-21T05:12:49;5.82;;;3.75;;
41927;SDS011;27616;51.420;6.788;2023-05-21T05:15:15;5.82;;;3.72;;
41927;SDS011;27616;51.420;6.788;2023-05-21T05:17:42;6.43;;;3.78;;
41927;SDS011;27616;51.420;6.788;2023-05-21T05:20:09;13.63;;;6.32;;
41927;SDS011;27616;51.420;6.788;2023-05-21T05:22:36;8.50;;;4.53;;
41927;SDS011;27616;51.420;6.788;2023-05-21T05:25:01;8.15;;;4.10;;
41927;SDS011;27616;51.420;6.788;2023-05-21T05:27:27;8.73;;;4.22;;
41927;SDS011;27616;51.420;6.788;2023-05-21T05:29:53;7.35;;;4.25;;
41927;SDS011;27616;51.420;6.788;2023-05-21T05:32:19;8.52;;;4.38;;
41927;SDS011;27616;51.420;6.788;2023-05-21T05:34:45;7.43;;;3.90;;
41927;SDS011;27616;51.420;6.788;2023-05-21T05:37:11;9.90;;;4.70;;
41927;SDS011;27616;51.420;6.788;2023-05-21T05:39:36;8.13;;;4.30;;
41927;SDS011;27616;51.420;6.788;2023-05-21T05:42:02;7.32;;;3.75;;
41927;SDS011;27616;51.420;6.788;2023-05-21T05:44:28;7.90;;;4.13;;
41927;SDS011;27616;51.420;6.788;2023-05-21T05:46:54;6.57;;;3.75;;
41927;SDS011;27616;51.420;6.788;2023-05-21T05:49:20;7.35;;;4.50;;
41927;SDS011;27616;51.420;6.788;2023-05-21T05:51:46;6.82;;;4.07;;
41927;SDS011;27616;51.420;6.788;2023-05-21T05:54:11;7.68;;;4.55;;
41927;SDS011;27616;51.420;6.788;2023-05-21T05:56:37;6.85;;;3.90;;
41927;SDS011;27616;51.420;6.788;2023-05-21T05:59:04;8.38;;;4.88;;
41927;SDS011;27616;51.420;6.788;2023-05-21T06:01:33;8.02;;;4.40;;
41927;SDS011;27616;51.420;6.788;2023-05-21T06:03:58;7.57;;;3.92;;
41927;SDS011;27616;51.420;6.788;2023-05-21T06:06:24;9.38;;;4.32;;
41927;SDS011;27616;51.420;6.788;2023-05-21T06:08:50;6.90;;;3.70;;
41927;SDS011;27616;51.420;6.788;2023-05-21T06:11:18;8.75;;;4.28;;
41927;SDS011;27616;51.420;6.788;2023-05-21T06:13:45;8.68;;;4.53;;
41927;SDS011;27616;51.420;6.788;2023-05-21T06:16:12;7.22;;;4.07;;
41927;SDS011;27616;51.420;6.788;2023-05-21T06:18:38;7.53;;;4.07;;
41927;SDS011;27616;51.420;6.788;2023-05-21T06:21:04;8.63;;;4.25;;
41927;SDS011;27616;51.420;6.788;2023-05-21T06:23:30;9.38;;;4.38;;
41927;SDS011;27616;51.420;6.788;2023-05-21T06:25:57;7.35;;;4.20;;
41927;SDS011;27616;51.420;6.788;2023-05-21T06:28:24;7.97;;;4.57;;
41927;SDS011;27616;51.420;6.788;2023-05-21T06:30:52;9.05;;;4.90;;
41927;SDS011;27616;51.420;6.788;2023-05-21T06:33:18;6.75;;;4.22;;
41927;SDS011;27616;51.420;6.788;2023-05-21T06:35:44;8.02;;;4.55;;
41927;SDS011;27616;51.420;6.788;2023-05-21T06:38:10;7.90;;;4.57;;
41927;SDS011;27616;51.420;6.788;2023-05-21T06:40:36;8.18;;;4.85;;
41927;SDS011;27616;51.420;6.788;2023-05-21T06:43:02;6.47;;;3.90;;
41927;SDS011;27616;51.420;6.788;2023-05-21T06:45:35;9.13;;;4.70;;
41927;SDS011;27616;51.420;6.788;2023-05-21T06:48:14;8.73;;;4.75;;
41927;SDS011;27616;51.420;6.788;2023-05-21T06:50:45;10.27;;;4.72;;
41927;SDS011;27616;51.420;6.788;2023-05-21T06:53:11;8.73;;;5.07;;
41927;SDS011;27616;51.420;6.788;2023-05-21T06:55:41;8.40;;;4.68;;
41927;SDS011;27616;51.420;6.788;2023-05-21T06:58:16;9.23;;;4.80;;
41927;SDS011;27616;51.420;6.788;2023-05-21T07:00:42;8.57;;;4.75;;
41927;SDS011;27616;51.420;6.788;2023-05-21T07:03:08;9.68;;;4.90;;
41927;SDS011;27616;51.420;6.788;2023-05-21T07:05:35;8.23;;;5.10;;
41927;SDS011;27616;51.420;6.788;2023-05-21T07:08:01;9.48;;;4.63;;
41927;SDS011;27616;51.420;6.788;2023-05-21T07:10:26;9.80;;;5.10;;
41927;SDS011;27616;51.420;6.788;2023-05-21T07:12:52;9.48;;;5.38;;
41927;SDS011;27616;51.420;6.788;2023-05-21T07:15:19;12.40;;;5.97;;
41927;SDS011;27616;51.420;6.788;2023-05-21T07:17:45;9.32;;;4.95;;
41927;SDS011;27616;51.420;6.788;2023-05-21T07:20:11;7.88;;;4.60;;
41927;SDS011;27616;51.420;6.788;2023-05-21T07:25:12;7.25;;;4.20;;
41927;SDS011;27616;51.420;6.788;2023-05-21T07:27:37;9.02;;;5.25;;
41927;SDS011;27616;51.420;6.788;2023-05-21T07:30:03;6.88;;;4.78;;
41927;SDS011;27616;51.420;6.788;2023-05-21T07:32:30;7.78;;;4.95;;
41927;SDS011;27616;51.420;6.788;2023-05-21T07:34:58;8.90;;;4.95;;
41927;SDS011;27616;51.420;6.788;2023-05-21T07:37:26;7.63;;;4.40;;
41927;SDS011;27616;51.420;6.788;2023-05-21T07:39:55;9.23;;;4.60;;
41927;SDS011;27616;51.420;6.788;2023-05-21T07:42:25;8.68;;;5.40;;
41927;SDS011;27616;51.420;6.788;2023-05-21T07:44:52;9.98;;;5.45;;
41927;SDS011;27616;51.420;6.788;2023-05-21T07:47:18;7.38;;;4.45;;
41927;SDS011;27616;51.420;6.788;2023-05-21T07:49:44;8.23;;;4.88;;
41927;SDS011;27616;51.420;6.788;2023-05-21T07:52:10;8.65;;;5.40;;
41927;SDS011;27616;51.420;6.788;2023-05-21T07:54:36;8.05;;;4.90;;
41927;SDS011;27616;51.420;6.788;2023-05-21T07:57:02;9.57;;;5.53;;
41927;SDS011;27616;51.420;6.788;2023-05-21T07:59:44;8.80;;;5.60;;
41927;SDS011;27616;51.420;6.788;2023-05-21T08:02:10;10.48;;;6.40;;
41927;SDS011;27616;51.420;6.788;2023-05-21T08:04:36;8.43;;;5.25;;
41927;SDS011;27616;51.420;6.788;2023-05-21T08:07:02;9.57;;;5.63;;
41927;SDS011;27616;51.420;6.788;2023-05-21T08:09:28;8.35;;;4.70;;
41927;SDS011;27616;51.420;6.788;2023-05-21T08:11:54;8.20;;;4.57;;
41927;SDS011;27616;51.420;6.788;2023-05-21T08:14:20;8.63;;;4.90;;
41927;SDS011;27616;51.420;6.788;2023-05-21T08:16:46;10.25;;;6.40;;
41927;SDS011;27616;51.420;6.788;2023-05-21T08:19:12;8.05;;;5.80;;
41927;SDS011;27616;51.420;6.788;2023-05-21T08:21:38;8.52;;;5.35;;
41927;SDS011;27616;51.420;6.788;2023-05-21T08:24:04;9.18;;;5.60;;
41927;SDS011;27616;51.420;6.788;2023-05-21T08:26:30;10.57;;;5.82;;
41927;SDS011;27616;51.420;6.788;2023-05-21T08:28:56;9.77;;;5.63;;
41927;SDS011;27616;51.420;6.788;2023-05-21T08:31:22;9.95;;;5.93;;
41927;SDS011;27616;51.420;6.788;2023-05-21T08:33:49;9.35;;;5.72;;
41927;SDS011;27616;51.420;6.788;2023-05-21T08:36:18;9.15;;;5.80;;
41927;SDS011;27616;51.420;6.788;2023-05-21T08:38:53;10.60;;;6.40;;
41927;SDS011;27616;51.420;6.788;2023-05-21T08:41:30;9.30;;;5.72;;
41927;SDS011;27616;51.420;6.788;2023-05-21T08:44:00;10.82;;;5.78;;
41927;SDS011;27616;51.420;6.788;2023-05-21T08:46:31;10.18;;;6.13;;
41927;SDS011;27616;51.420;6.788;2023-05-21T08:48:59;9.52;;;6.13;;
41927;SDS011;27616;51.420;6.788;2023-05-21T08:51:27;10.13;;;5.57;;
41927;SDS011;27616;51.420;6.788;2023-05-21T08:53:54;7.25;;;5.30;;
41927;SDS011;27616;51.420;6.788;2023-05-21T08:56:22;8.68;;;5.75;;
41927;SDS011;27616;51.420;6.788;2023-05-21T08:58:55;11.10;;;6.38;;
41927;SDS011;27616;51.420;6.788;2023-05-21T09:01:25;10.20;;;6.20;;
41927;SDS011;27616;51.420;6.788;2023-05-21T09:04:02;9.30;;;5.78;;
41927;SDS011;27616;51.420;6.788;2023-05-21T09:06:29;11.27;;;7.28;;
41927;SDS011;27616;51.420;6.788;2023-05-21T09:09:03;11.43;;;7.03;;
41927;SDS011;27616;51.420;6.788;2023-05-21T09:11:45;12.00;;;6.53;;
41927;SDS011;27616;51.420;6.788;2023-05-21T09:14:12;10.88;;;6.30;;
41927;SDS011;27616;51.420;6.788;2023-05-21T09:17:02;9.95;;;6.47;;
41927;SDS011;27616;51.420;6.788;2023-05-21T09:19:28;9.68;;;6.25;;
41927;SDS011;27616;51.420;6.788;2023-05-21T09:22:00;11.30;;;6.70;;
41927;SDS011;27616;51.420;6.788;2023-05-21T09:24:31;10.77;;;6.97;;
41927;SDS011;27616;51.420;6.788;2023-05-21T09:26:57;11.20;;;6.18;;
41927;SDS011;27616;51.420;6.788;2023-05-21T09:31:51;8.60;;;5.32;;
41927;SDS011;27616;51.420;6.788;2023-05-21T09:34:19;10.05;;;6.90;;
41927;SDS011;27616;51.420;6.788;2023-05-21T09:36:47;11.27;;;6.15;;
41927;SDS011;27616;51.420;6.788;2023-05-21T09:39:35;12.65;;;7.47;;
41927;SDS011;27616;51.420;6.788;2023-05-21T09:42:02;9.63;;;6.43;;
41927;SDS011;27616;51.420;6.788;2023-05-21T09:44:28;10.45;;;6.57;;
41927;SDS011;27616;51.420;6.788;2023-05-21T09:46:55;12.43;;;6.65;;
41927;SDS011;27616;51.420;6.788;2023-05-21T09:49:24;11.57;;;6.65;;
41927;SDS011;27616;51.420;6.788;2023-05-21T09:51:55;10.98;;;6.57;;
41927;SDS011;27616;51.420;6.788;2023-05-21T09:54:24;11.48;;;6.88;;
41927;SDS011;27616;51.420;6.788;2023-05-21T09:56:55;10.15;;;6.38;;
41927;SDS011;27616;51.420;6.788;2023-05-21T09:59:20;13.30;;;7.72;;
41927;SDS011;27616;51.420;6.788;2023-05-21T10:01:49;12.57;;;7.53;;
41927;SDS011;27616;51.420;6.788;2023-05-21T10:04:16;10.95;;;6.82;;
41927;SDS011;27616;51.420;6.788;2023-05-21T10:06:42;12.50;;;7.43;;
41927;SDS011;27616;51.420;6.788;2023-05-21T10:09:12;12.85;;;7.28;;
41927;SDS011;27616;51.420;6.788;2023-05-21T10:11:43;12.13;;;7.35;;
41927;SDS011;27616;51.420;6.788;2023-05-21T10:14:17;15.83;;;7.63;;
41927;SDS011;27616;51.420;6.788;2023-05-21T10:16:46;12.75;;;7.22;;
41927;SDS011;27616;51.420;6.788;2023-05-21T10:19:13;12.70;;;7.65;;
41927;SDS011;27616;51.420;6.788;2023-05-21T10:21:40;13.30;;;7.47;;
41927;SDS011;27616;51.420;6.788;2023-05-21T10:24:06;11.05;;;6.65;;
41927;SDS011;27616;51.420;6.788;2023-05-21T10:26:33;12.50;;;7.63;;
41927;SDS011;27616;51.420;6.788;2023-05-21T10:29:00;14.95;;;7.85;;
41927;SDS011;27616;51.420;6.788;2023-05-21T10:31:26;12.00;;;7.03;;
41927;SDS011;27616;51.420;6.788;2023-05-21T10:33:53;11.88;;;7.80;;
41927;SDS011;27616;51.420;6.788;2023-05-21T10:36:20;10.68;;;6.97;;
41927;SDS011;27616;51.420;6.788;2023-05-21T10:38:47;13.75;;;7.88;;
41927;SDS011;27616;51.420;6.788;2023-05-21T10:41:14;11.32;;;7.75;;
41927;SDS011;27616;51.420;6.788;2023-05-21T10:43:50;12.00;;;7.45;;
41927;SDS011;27616;51.420;6.788;2023-05-21T10:49:37;12.43;;;7.35;;
41927;SDS011;27616;51.420;6.788;2023-05-21T10:55:10;13.40;;;8.15;;
41927;SDS011;27616;51.420;6.788;2023-05-21T11:00:32;12.07;;;7.20;;
41927;SDS011;27616;51.420;6.788;2023-05-21T11:02:58;12.25;;;7.47;;
41927;SDS011;27616;51.420;6.788;2023-05-21T11:05:38;13.23;;;7.38;;
41927;SDS011;27616;51.420;6.788;2023-05-21T11:08:10;13.65;;;7.60;;
41927;SDS011;27616;51.420;6.788;2023-05-21T11:10:50;13.18;;;7.40;;
41927;SDS011;27616;51.420;6.788;2023-05-21T11:13:16;12.60;;;7.80;;
41927;SDS011;27616;51.420;6.788;2023-05-21T11:26:20;12.52;;;7.07;;
41927;SDS011;27616;51.420;6.788;2023-05-21T11:31:34;13.05;;;6.63;;
41927;SDS011;27616;51.420;6.788;2023-05-21T11:34:07;15.57;;;7.45;;
41927;SDS011;27616;51.420;6.788;2023-05-21T11:36:36;12.45;;;7.32;;
41927;SDS011;27616;51.420;6.788;2023-05-21T11:39:07;11.82;;;6.68;;
41927;SDS011;27616;51.420;6.788;2023-05-21T11:41:55;11.27;;;6.50;;
41927;SDS011;27616;51.420;6.788;2023-05-21T11:47:13;11.75;;;6.78;;
41927;SDS011;27616;51.420;6.788;2023-05-21T11:49:42;11.48;;;6.82;;
41927;SDS011;27616;51.420;6.788;2023-05-21T11:52:09;10.00;;;6.57;;
41927;SDS011;27616;51.420;6.788;2023-05-21T11:54:40;11.48;;;7.57;;
41927;SDS011;27616;51.420;6.788;2023-05-21T11:57:10;11.80;;;7.45;;
41927;SDS011;27616;51.420;6.788;2023-05-21T11:59:40;11.50;;;7.35;;
41927;SDS011;27616;51.420;6.788;2023-05-21T12:02:06;11.85;;;7.13;;
41927;SDS011;27616;51.420;6.788;2023-05-21T12:04:32;11.35;;;7.15;;
41927;SDS011;27616;51.420;6.788;2023-05-21T12:07:02;14.40;;;7.25;;
41927;SDS011;27616;51.420;6.788;2023-05-21T12:12:06;11.60;;;6.93;;
41927;SDS011;27616;51.420;6.788;2023-05-21T12:14:33;12.35;;;7.13;;
41927;SDS011;27616;51.420;6.788;2023-05-21T12:17:00;13.30;;;7.13;;
41927;SDS011;27616;51.420;6.788;2023-05-21T12:19:27;12.95;;;7.72;;
41927;SDS011;27616;51.420;6.788;2023-05-21T12:21:56;14.80;;;8.82;;
41927;SDS011;27616;51.420;6.788;2023-05-21T12:24:23;13.07;;;7.65;;
41927;SDS011;27616;51.420;6.788;2023-05-21T12:26:49;11.25;;;7.22;;
41927;SDS011;27616;51.420;6.788;2023-05-21T12:29:16;14.38;;;7.50;;
41927;SDS011;27616;51.420;6.788;2023-05-21T12:31:48;12.68;;;7.53;;
41927;SDS011;27616;51.420;6.788;2023-05-21T12:34:14;11.57;;;7.18;;
41927;SDS011;27616;51.420;6.788;2023-05-21T12:36:43;12.30;;;7.32;;
41927;SDS011;27616;51.420;6.788;2023-05-21T12:39:15;11.07;;;6.72;;
41927;SDS011;27616;51.420;6.788;2023-05-21T12:41:42;11.70;;;7.68;;
41927;SDS011;27616;51.420;6.788;2023-05-21T12:44:08;10.77;;;7.13;;
41927;SDS011;27616;51.420;6.788;2023-05-21T12:46:35;11.32;;;8.02;;
41927;SDS011;27616;51.420;6.788;2023-05-21T12:49:01;12.20;;;7.97;;
41927;SDS011;27616;51.420;6.788;2023-05-21T12:51:36;12.98;;;7.47;;
41927;SDS011;27616;51.420;6.788;2023-05-21T12:54:03;11.32;;;7.72;;
41927;SDS011;27616;51.420;6.788;2023-05-21T12:56:42;12.85;;;7.78;;
41927;SDS011;27616;51.420;6.788;2023-05-21T12:59:12;10.57;;;7.00;;
41927;SDS011;27616;51.420;6.788;2023-05-21T13:01:39;16.85;;;10.85;;
41927;SDS011;27616;51.420;6.788;2023-05-21T13:04:05;13.75;;;8.88;;
41927;SDS011;27616;51.420;6.788;2023-05-21T13:06:40;14.10;;;9.02;;
41927;SDS011;27616;51.420;6.788;2023-05-21T13:09:09;12.20;;;7.95;;
41927;SDS011;27616;51.420;6.788;2023-05-21T13:11:35;13.43;;;8.25;;
41927;SDS011;27616;51.420;6.788;2023-05-21T13:14:01;11.45;;;7.88;;
41927;SDS011;27616;51.420;6.788;2023-05-21T13:16:26;12.93;;;7.72;;
41927;SDS011;27616;51.420;6.788;2023-05-21T13:18:52;11.27;;;7.50;;
41927;SDS011;27616;51.420;6.788;2023-05-21T13:21:18;11.82;;;7.70;;
41927;SDS011;27616;51.420;6.788;2023-05-21T13:23:43;14.40;;;9.20;;
41927;SDS011;27616;51.420;6.788;2023-05-21T13:26:09;18.95;;;11.10;;
41927;SDS011;27616;51.420;6.788;2023-05-21T13:28:35;11.63;;;7.45;;
41927;SDS011;27616;51.420;6.788;2023-05-21T13:31:01;13.07;;;8.30;;
41927;SDS011;27616;51.420;6.788;2023-05-21T13:33:26;12.15;;;7.45;;
41927;SDS011;27616;51.420;6.788;2023-05-21T13:35:52;13.57;;;7.93;;
41927;SDS011;27616;51.420;6.788;2023-05-21T13:38:18;9.05;;;6.57;;
41927;SDS011;27616;51.420;6.788;2023-05-21T13:40:44;11.05;;;7.60;;
41927;SDS011;27616;51.420;6.788;2023-05-21T13:43:10;11.35;;;7.30;;
41927;SDS011;27616;51.420;6.788;2023-05-21T13:45:35;10.35;;;6.90;;
41927;SDS011;27616;51.420;6.788;2023-05-21T13:48:01;13.50;;;7.30;;
41927;SDS011;27616;51.420;6.788;2023-05-21T13:50:27;12.25;;;6.75;;
41927;SDS011;27616;51.420;6.788;2023-05-21T13:52:52;12.77;;;7.40;;
41927;SDS011;27616;51.420;6.788;2023-05-21T13:55:18;10.55;;;6.63;;
41927;SDS011;27616;51.420;6.788;2023-05-21T13:57:44;10.18;;;6.70;;
41927;SDS011;27616;51.420;6.788;2023-05-21T14:00:10;10.23;;;6.78;;
41927;SDS011;27616;51.420;6.788;2023-05-21T14:02:39;10.30;;;6.90;;
41927;SDS011;27616;51.420;6.788;2023-05-21T14:05:06;11.77;;;7.80;;
41927;SDS011;27616;51.420;6.788;2023-05-21T14:07:32;10.98;;;7.15;;
41927;SDS011;27616;51.420;6.788;2023-05-21T14:09:57;9.48;;;6.40;;
41927;SDS011;27616;51.420;6.788;2023-05-21T14:12:23;12.02;;;7.65;;
41927;SDS011;27616;51.420;6.788;2023-05-21T14:14:50;10.38;;;6.80;;
41927;SDS011;27616;51.420;6.788;2023-05-21T14:17:16;12.32;;;7.32;;
41927;SDS011;27616;51.420;6.788;2023-05-21T14:19:42;11.93;;;7.13;;
41927;SDS011;27616;51.420;6.788;2023-05-21T14:22:07;11.38;;;7.10;;
41927;SDS011;27616;51.420;6.788;2023-05-21T14:24:33;10.98;;;6.55;;
41927;SDS011;27616;51.420;6.788;2023-05-21T14:26:59;9.82;;;7.10;;
41927;SDS011;27616;51.420;6.788;2023-05-21T14:29:24;10.13;;;6.70;;
41927;SDS011;27616;51.420;6.788;2023-05-21T14:31:50;12.38;;;7.35;;
41927;SDS011;27616;51.420;6.788;2023-05-21T14:34:16;10.60;;;6.80;;
41927;SDS011;27616;51.420;6.788;2023-05-21T14:36:41;9.77;;;6.80;;
41927;SDS011;27616;51.420;6.788;2023-05-21T14:39:08;11.25;;;7.07;;
41927;SDS011;27616;51.420;6.788;2023-05-21T14:41:36;10.88;;;6.88;;
41927;SDS011;27616;51.420;6.788;2023-05-21T14:44:03;11.93;;;6.90;;
41927;SDS011;27616;51.420;6.788;2023-05-21T14:46:29;12.02;;;6.55;;
41927;SDS011;27616;51.420;6.788;2023-05-21T14:48:55;10.52;;;6.40;;
41927;SDS011;27616;51.420;6.788;2023-05-21T14:51:23;10.05;;;6.57;;
41927;SDS011;27616;51.420;6.788;2023-05-21T14:53:49;9.25;;;6.97;;
41927;SDS011;27616;51.420;6.788;2023-05-21T14:56:15;9.13;;;6.28;;
41927;SDS011;27616;51.420;6.788;2023-05-21T14:58:41;10.50;;;6.90;;
41927;SDS011;27616;51.420;6.788;2023-05-21T15:01:07;9.48;;;6.38;;
41927;SDS011;27616;51.420;6.788;2023-05-21T15:03:33;9.40;;;5.90;;
41927;SDS011;27616;51.420;6.788;2023-05-21T15:05:58;9.18;;;6.32;;
41927;SDS011;27616;51.420;6.788;2023-05-21T15:08:24;9.57;;;5.97;;
41927;SDS011;27616;51.420;6.788;2023-05-21T15:10:50;10.07;;;7.15;;
41927;SDS011;27616;51.420;6.788;2023-05-21T15:13:16;8.98;;;6.03;;
41927;SDS011;27616;51.420;6.788;2023-05-21T15:15:41;9.25;;;6.32;;
41927;SDS011;27616;51.420;6.788;2023-05-21T15:18:07;9.85;;;6.32;;
41927;SDS011;27616;51.420;6.788;2023-05-21T15:20:33;10.48;;;6.60;;
41927;SDS011;27616;51.420;6.788;2023-05-21T15:22:58;8.25;;;6.10;;
41927;SDS011;27616;51.420;6.788;2023-05-21T15:25:25;10.82;;;6.50;;
41927;SDS011;27616;51.420;6.788;2023-05-21T15:27:50;10.35;;;6.63;;